Time;durP1;ratioP1;P1;durP2;ratioP2;P2;SDS_P1;SDS_P2;PMS_P1;PMS_P2;Temp;Humidity;BMP_temperature;BMP_pressure;BME280_temperature;BME280_humidity;BME280_pressure;Samples;Min_cycle;Max_cycle;Signal;HPM_P1;HPM_P2
2023/10/10 11:31:33;;;;;;;11.60;3.78;;;;;;;;;;6099557;22;20031;-84
2023/10/10 11:34:25;;;;;;;13.52;4.18;;;;;;;;;;5014106;28;20038;-89
2023/10/10 11:37:11;;;;;;;17.52;3.33;;;;;;;;;;4997730;28;20030;-89
2023/10/10 11:39:46;;;;;;;13.55;3.67;;;;;;;;;;4998380;28;20053;-88
2023/10/10 11:42:22;;;;;;;21.73;5.00;;;;;;;;;;4998432;28;20033;-89
2023/10/10 17:03:54;;;;;;;11.48;3.22;;;;;;;;;;5108621;22;20517;-85
2023/10/10 17:06:22;;;;;;;11.45;3.42;;;;;;;;;;5045403;28;20037;-86
2023/10/10 17:08:55;;;;;;;13.35;3.55;;;;;;;;;;5037582;28;20033;-86
2023/10/10 17:11:22;;;;;;;11.75;3.28;;;;;;;;;;5035670;28;20028;-85
2023/10/10 17:13:49;;;;;;;8.95;2.80;;;;;;;;;;5034411;28;20022;-85
2023/10/10 17:16:19;;;;;;;9.98;2.90;;;;;;;;;;5034528;28;20105;-86
2023/10/10 17:18:48;;;;;;;8.93;3.17;;;;;;;;;;5035811;28;20029;-86
2023/10/10 17:21:18;;;;;;;8.23;3.08;;;;;;;;;;5035461;28;20361;-84
2023/10/10 17:23:50;;;;;;;9.65;3.38;;;;;;;;;;5047834;28;20044;-86
2023/10/10 17:26:23;;;;;;;20.45;3.45;;;;;;;;;;5054217;28;20415;-86
2023/10/10 17:28:50;;;;;;;11.57;2.65;;;;;;;;;;5055420;28;20471;-86
2023/10/10 17:31:26;;;;;;;10.40;2.47;;;;;;;;;;5055168;28;20460;-86
2023/10/10 17:33:56;;;;;;;9.18;3.08;;;;;;;;;;5054133;28;20095;-86
2023/10/10 17:36:26;;;;;;;9.70;3.40;;;;;;;;;;5055301;28;20029;-86
2023/10/10 17:38:52;;;;;;;20.98;2.72;;;;;;;;;;5055254;28;20029;-86
2023/10/10 17:41:18;;;;;;;8.07;2.92;;;;;;;;;;5037089;28;20021;-86
2023/10/10 17:43:43;;;;;;;10.60;3.15;;;;;;;;;;5035232;28;20099;-86
2023/10/10 17:46:16;;;;;;;8.77;2.50;;;;;;;;;;5034030;28;20079;-86
2023/10/10 17:48:42;;;;;;;11.00;3.53;;;;;;;;;;5035066;28;20503;-86
2023/10/10 17:51:14;;;;;;;10.50;2.95;;;;;;;;;;5034233;28;20025;-86
2023/10/10 17:53:43;;;;;;;9.77;2.90;;;;;;;;;;5040064;28;20379;-87
2023/10/10 17:56:12;;;;;;;13.52;3.22;;;;;;;;;;5053895;28;20052;-86
2023/10/10 17:58:42;;;;;;;11.00;3.05;;;;;;;;;;5054920;28;20601;-86
2023/10/10 18:01:09;;;;;;;9.48;3.20;;;;;;;;;;5054881;28;20072;-86
2023/10/10 18:03:39;;;;;;;8.23;3.00;;;;;;;;;;5054575;28;20029;-86
2023/10/10 18:06:05;;;;;;;13.27;3.05;;;;;;;;;;5054929;28;20028;-87
2023/10/10 18:08:30;;;;;;;10.25;3.40;;;;;;;;;;5054962;28;20029;-85
2023/10/10 18:11:03;;;;;;;10.27;3.40;;;;;;;;;;5055180;28;20066;-88
2023/10/10 18:13:28;;;;;;;11.77;3.03;;;;;;;;;;5053981;28;20507;-87
2023/10/10 18:15:56;;;;;;;9.82;3.17;;;;;;;;;;5055224;28;20087;-88
2023/10/10 18:18:22;;;;;;;10.70;3.60;;;;;;;;;;5054404;28;20096;-88
2023/10/10 18:20:49;;;;;;;10.18;3.78;;;;;;;;;;5054984;28;20025;-88
2023/10/10 18:23:17;;;;;;;8.65;3.28;;;;;;;;;;5053607;28;20116;-88
2023/10/10 18:25:43;;;;;;;11.32;3.28;;;;;;;;;;5055847;28;20033;-90
2023/10/10 18:28:08;;;;;;;8.80;2.97;;;;;;;;;;5054316;28;20029;-88
2023/10/10 18:30:39;;;;;;;11.45;3.38;;;;;;;;;;5054705;28;20032;-85
2023/10/10 18:33:09;;;;;;;10.95;2.50;;;;;;;;;;5054293;28;20442;-86
2023/10/10 18:35:35;;;;;;;6.97;3.10;;;;;;;;;;5054285;28;20025;-86
2023/10/10 18:38:00;;;;;;;10.18;2.97;;;;;;;;;;5054347;28;20103;-85
2023/10/10 18:40:26;;;;;;;14.23;3.17;;;;;;;;;;5052955;28;20476;-85
2023/10/10 18:42:51;;;;;;;9.77;2.92;;;;;;;;;;5054161;28;20379;-85
2023/10/10 18:45:18;;;;;;;12.30;3.17;;;;;;;;;;5054265;28;20025;-86
2023/10/10 18:47:48;;;;;;;11.90;2.97;;;;;;;;;;5054545;28;20036;-87
2023/10/10 18:50:18;;;;;;;13.93;3.38;;;;;;;;;;5052859;28;20040;-85
2023/10/10 18:52:52;;;;;;;14.38;3.50;;;;;;;;;;5054425;28;20021;-85
2023/10/10 18:55:19;;;;;;;12.75;3.65;;;;;;;;;;5054739;28;20037;-86
2023/10/10 18:57:49;;;;;;;9.23;3.22;;;;;;;;;;5054412;28;20036;-88
2023/10/10 19:00:15;;;;;;;;;;;;;;;;;;5053145;28;20151;-87
2023/10/10 19:02:44;;;;;;;17.08;3.50;;;;;;;;;;5053986;28;19974;-86
2023/10/10 19:05:15;;;;;;;9.93;3.67;;;;;;;;;;5053676;28;20126;-87
2023/10/10 19:07:44;;;;;;;14.45;4.38;;;;;;;;;;5052689;28;20025;-87
2023/10/10 19:10:13;;;;;;;;;;;;;;;;;;5053858;28;20056;-87
2023/10/10 19:12:43;;;;;;;10.10;3.17;;;;;;;;;;5053455;28;19913;-88
2023/10/10 19:15:13;;;;;;;11.02;3.30;;;;;;;;;;5052635;28;20052;-87
2023/10/10 19:17:43;;;;;;;8.75;3.40;;;;;;;;;;5052498;28;20053;-88
2023/10/10 19:20:18;;;;;;;11.88;3.17;;;;;;;;;;5052462;28;20075;-88
2023/10/10 19:22:46;;;;;;;7.72;3.08;;;;;;;;;;5053522;28;20174;-87
2023/10/10 19:25:22;;;;;;;8.70;4.00;;;;;;;;;;5053646;28;20112;-87
2023/10/10 19:27:55;;;;;;;8.25;3.45;;;;;;;;;;5053670;28;20107;-87
2023/10/10 19:30:33;;;;;;;9.88;3.60;;;;;;;;;;5052353;28;20025;-87
2023/10/10 19:33:00;;;;;;;8.70;3.72;;;;;;;;;;5052443;28;20025;-84
2023/10/10 19:35:27;;;;;;;9.05;4.07;;;;;;;;;;5053656;28;20036;-87
2023/10/10 19:37:57;;;;;;;13.00;3.47;;;;;;;;;;5052065;28;20021;-87
2023/10/10 19:40:28;;;;;;;11.68;3.75;;;;;;;;;;5052094;28;20364;-87
2023/10/10 19:42:55;;;;;;;12.10;4.05;;;;;;;;;;5053384;28;20032;-87
2023/10/10 19:45:23;;;;;;;14.60;4.40;;;;;;;;;;5053463;28;20104;-87
2023/10/10 19:47:57;;;;;;;9.15;4.13;;;;;;;;;;5052166;28;20025;-87
2023/10/10 19:50:24;;;;;;;11.75;4.40;;;;;;;;;;5051875;28;20029;-87
2023/10/10 19:52:59;;;;;;;11.43;3.95;;;;;;;;;;5052125;28;20365;-87
2023/10/10 19:55:24;;;;;;;9.32;3.97;;;;;;;;;;5053251;28;20053;-87
2023/10/10 19:57:50;;;;;;;13.85;4.43;;;;;;;;;;5053255;28;20495;-87
2023/10/10 20:00:21;;;;;;;14.10;4.32;;;;;;;;;;5051794;28;20032;-86
2023/10/10 20:02:55;;;;;;;11.68;4.30;;;;;;;;;;5053343;28;20063;-87
2023/10/10 20:05:21;;;;;;;11.70;4.00;;;;;;;;;;5052987;28;20033;-88
2023/10/10 20:07:48;;;;;;;12.02;4.70;;;;;;;;;;5053186;28;20036;-87
2023/10/10 20:10:18;;;;;;;11.95;4.72;;;;;;;;;;5053288;28;20083;-87
2023/10/10 20:12:45;;;;;;;14.40;4.75;;;;;;;;;;5053548;28;20108;-87
2023/10/10 20:15:14;;;;;;;11.73;4.45;;;;;;;;;;5055781;28;20025;-87
2023/10/10 20:17:45;;;;;;;12.10;4.88;;;;;;;;;;5055656;28;20116;-87
2023/10/10 20:20:25;;;;;;;11.48;4.15;;;;;;;;;;5056842;28;20029;-87
2023/10/10 20:22:56;;;;;;;11.90;4.32;;;;;;;;;;5056682;28;20032;-86
2023/10/10 20:25:22;;;;;;;15.23;5.38;;;;;;;;;;5055521;28;20021;-87
2023/10/10 20:27:51;;;;;;;8.75;3.83;;;;;;;;;;5055504;28;20032;-87
2023/10/10 20:30:19;;;;;;;8.35;4.43;;;;;;;;;;5056793;28;20017;-86
2023/10/10 20:32:50;;;;;;;9.55;4.95;;;;;;;;;;5056504;28;20172;-86
2023/10/10 20:35:16;;;;;;;17.25;5.47;;;;;;;;;;5055480;28;20017;-86
2023/10/10 20:37:46;;;;;;;11.60;4.93;;;;;;;;;;5055089;28;20029;-86
2023/10/10 20:40:17;;;;;;;13.07;4.40;;;;;;;;;;5056680;28;20017;-86
2023/10/10 20:42:47;;;;;;;13.20;4.53;;;;;;;;;;5055164;28;20041;-86
2023/10/10 20:45:14;;;;;;;10.23;4.63;;;;;;;;;;5055224;28;20021;-86
2023/10/10 20:47:42;;;;;;;14.70;4.72;;;;;;;;;;5055117;28;20475;-86
2023/10/10 20:50:12;;;;;;;12.77;4.93;;;;;;;;;;5056171;28;20040;-86
2023/10/10 20:52:40;;;;;;;10.50;4.47;;;;;;;;;;5054863;28;20037;-87
2023/10/10 20:55:11;;;;;;;10.52;3.75;;;;;;;;;;5056271;28;20035;-86
2023/10/10 20:57:38;;;;;;;14.95;4.22;;;;;;;;;;5056232;28;20096;-86
2023/10/10 21:00:06;;;;;;;10.63;4.60;;;;;;;;;;5055015;28;20032;-86
2023/10/10 21:02:34;;;;;;;12.85;4.88;;;;;;;;;;5056143;28;20025;-86
2023/10/10 21:05:00;;;;;;;11.05;4.75;;;;;;;;;;5055874;28;20041;-86
2023/10/10 21:07:25;;;;;;;13.52;5.10;;;;;;;;;;5054662;28;20045;-87
2023/10/10 21:09:51;;;;;;;12.73;4.82;;;;;;;;;;5055951;28;20412;-87
2023/10/10 21:12:16;;;;;;;14.35;5.60;;;;;;;;;;5055908;28;20028;-86
2023/10/10 21:14:43;;;;;;;15.25;4.97;;;;;;;;;;5056012;28;20043;-86
2023/10/10 21:17:12;;;;;;;10.13;4.72;;;;;;;;;;5055796;28;20108;-87
2023/10/10 21:19:40;;;;;;;15.25;5.13;;;;;;;;;;5054585;28;20029;-86
2023/10/10 21:22:06;;;;;;;10.77;4.57;;;;;;;;;;5055643;28;20120;-87
2023/10/10 21:24:31;;;;;;;10.57;3.97;;;;;;;;;;5053457;28;20060;-86
2023/10/10 21:26:57;;;;;;;11.70;4.95;;;;;;;;;;5054502;28;20111;-87
2023/10/10 21:29:22;;;;;;;8.52;4.88;;;;;;;;;;5055620;28;20495;-87
2023/10/10 21:31:50;;;;;;;12.43;4.43;;;;;;;;;;5055688;28;20022;-87
2023/10/10 21:34:16;;;;;;;8.13;4.40;;;;;;;;;;5054143;28;20471;-87
2023/10/10 21:36:42;;;;;;;15.55;4.88;;;;;;;;;;5054309;28;20025;-87
2023/10/10 21:39:09;;;;;;;13.55;4.38;;;;;;;;;;5055551;28;20021;-86
2023/10/10 21:41:35;;;;;;;11.25;5.05;;;;;;;;;;5055417;28;20067;-86
2023/10/10 21:44:00;;;;;;;11.50;4.95;;;;;;;;;;5055283;28;20029;-86
2023/10/10 21:46:26;;;;;;;11.25;4.65;;;;;;;;;;5055287;28;20032;-87
2023/10/10 21:48:51;;;;;;;14.45;5.07;;;;;;;;;;5055513;28;20056;-87
2023/10/10 21:51:17;;;;;;;15.95;5.18;;;;;;;;;;5055289;28;20047;-87
2023/10/10 21:53:42;;;;;;;11.82;4.65;;;;;;;;;;5054167;28;20052;-87
2023/10/10 21:56:09;;;;;;;13.57;5.25;;;;;;;;;;5055163;28;20036;-87
2023/10/10 21:58:38;;;;;;;14.55;5.30;;;;;;;;;;5053951;28;20464;-87
2023/10/10 22:01:04;;;;;;;11.85;4.32;;;;;;;;;;5053817;28;20029;-87
2023/10/10 22:03:30;;;;;;;12.50;4.97;;;;;;;;;;5054802;28;20033;-87
2023/10/10 22:05:56;;;;;;;13.18;4.68;;;;;;;;;;5054996;28;20036;-87
2023/10/10 22:08:25;;;;;;;13.30;5.03;;;;;;;;;;5053762;28;20036;-87
2023/10/10 22:10:54;;;;;;;14.60;5.00;;;;;;;;;;5054754;28;20040;-87
2023/10/10 22:13:22;;;;;;;12.43;4.33;;;;;;;;;;5053738;28;20471;-87
2023/10/10 22:15:48;;;;;;;11.90;4.57;;;;;;;;;;5053418;28;20025;-87
2023/10/10 22:18:14;;;;;;;13.90;5.13;;;;;;;;;;5053483;28;20029;-87
2023/10/10 22:20:41;;;;;;;11.57;5.35;;;;;;;;;;5054636;28;20025;-88
2023/10/10 22:23:10;;;;;;;9.25;4.72;;;;;;;;;;5054994;28;20025;-96
